createdAt,value
2022-09-06T00:00:29.483Z,101476.50
2022-09-06T00:02:58.295Z,101477.13
2022-09-06T00:05:26.035Z,101474.13
2022-09-06T00:07:53.921Z,101482.38
2022-09-06T00:10:21.448Z,101487.78
2022-09-06T00:12:48.905Z,101481.63
2022-09-06T00:15:16.502Z,101474.63
2022-09-06T00:17:45.408Z,101451.22
2022-09-06T00:20:13.171Z,101455.09
2022-09-06T00:22:40.635Z,101456.56
2022-09-06T00:25:08.672Z,101465.47
2022-09-06T00:27:36.549Z,101463.44
2022-09-06T00:30:04.927Z,101459.34
2022-09-06T00:32:33.205Z,101462.44
2022-09-06T00:35:00.689Z,101467.81
2022-09-06T00:37:28.143Z,101462.28
2022-09-06T00:39:55.678Z,101456.50
2022-09-06T00:42:23.244Z,101465.22
2022-09-06T00:44:51.057Z,101461.28
2022-09-06T00:47:19.568Z,101452.84
2022-09-06T00:49:51.453Z,101451.44
2022-09-06T00:52:20.608Z,101447.72
2022-09-06T00:54:50.391Z,101434.31
2022-09-06T00:57:18.982Z,101431.84
2022-09-06T00:59:48.405Z,101436.19
2022-09-06T01:02:16.166Z,101436.75
2022-09-06T01:04:46.890Z,101440.28
2022-09-06T01:07:29.517Z,101437.81
2022-09-06T01:10:24.887Z,101433.50
2022-09-06T01:13:34.748Z,101427.31
2022-09-06T01:16:14.284Z,101428.75
2022-09-06T01:18:53.957Z,101429.59
2022-09-06T01:21:27.627Z,101440.31
2022-09-06T01:24:29.946Z,101441.94
2022-09-06T01:27:06.755Z,101434.94
2022-09-06T01:29:51.922Z,101446.91
2022-09-06T01:32:29.363Z,101437.81
2022-09-06T01:35:07.117Z,101434.53
2022-09-06T01:37:34.701Z,101429.78
2022-09-06T01:40:02.615Z,101436.19
2022-09-06T01:42:33.509Z,101432.88
2022-09-06T01:45:06.013Z,101432.88
2022-09-06T01:48:05.500Z,101426.50
2022-09-06T01:50:49.830Z,101421.13
2022-09-06T01:53:58.729Z,101417.44
2022-09-06T01:56:53.894Z,101427.50
2022-09-06T01:59:41.347Z,101425.22
2022-09-06T02:02:11.369Z,101423.75
2022-09-06T02:04:47.958Z,101420.03
2022-09-06T02:07:26.263Z,101417.16
2022-09-06T02:10:19.239Z,101431.56
2022-09-06T02:12:52.305Z,101437.75
2022-09-06T02:15:27.592Z,101443.69
2022-09-06T02:18:24.951Z,101436.47
2022-09-06T02:20:56.553Z,101442.06
2022-09-06T02:23:31.015Z,101435.91
2022-09-06T02:26:06.080Z,101438.56
2022-09-06T02:28:33.931Z,101438.13
2022-09-06T02:31:12.461Z,101441.44
2022-09-06T02:33:44.317Z,101438.75
2022-09-06T02:36:12.006Z,101444.09
2022-09-06T02:38:42.302Z,101429.91
2022-09-06T02:41:10.698Z,101448.63
2022-09-06T02:43:38.366Z,101439.78
2022-09-06T02:46:05.996Z,101447.59
2022-09-06T02:48:33.543Z,101429.88
2022-09-06T02:51:06.088Z,101435.66
2022-09-06T02:53:36.472Z,101455.03
2022-09-06T02:56:04.747Z,101463.06
2022-09-06T02:58:32.307Z,101457.50
2022-09-06T03:00:59.848Z,101455.59
2022-09-06T03:03:27.827Z,101454.81
2022-09-06T03:05:56.010Z,101454.19
2022-09-06T03:08:26.810Z,101452.50
2022-09-06T03:10:57.181Z,101456.63
2022-09-06T03:13:25.600Z,101450.03
2022-09-06T03:15:58.457Z,101452.88
2022-09-06T03:18:28.824Z,101449.56
2022-09-06T03:20:57.398Z,101459.81
2022-09-06T03:23:27.347Z,101465.97
2022-09-06T03:25:55.964Z,101470.91
2022-09-06T03:28:23.865Z,101478.34
2022-09-06T03:30:52.871Z,101467.25
2022-09-06T03:33:21.440Z,101464.78
2022-09-06T03:35:56.726Z,101476.06
2022-09-06T03:38:25.818Z,101470.28
2022-09-06T03:40:54.182Z,101478.75
2022-09-06T03:43:23.520Z,101465.59
2022-09-06T03:45:53.842Z,101469.31
2022-09-06T03:48:23.341Z,101484.81
2022-09-06T03:50:53.266Z,101493.28
2022-09-06T03:53:22.096Z,101496.38
2022-09-06T03:55:52.205Z,101493.31
2022-09-06T03:58:25.435Z,101495.78
2022-09-06T04:01:10.925Z,101493.28
2022-09-06T04:03:39.570Z,101489.75
2022-09-06T04:06:08.215Z,101478.34
2022-09-06T04:08:36.976Z,101470.06
2022-09-06T04:11:05.440Z,101479.88
2022-09-06T04:13:34.267Z,101486.44
2022-09-06T04:16:02.367Z,101487.81
2022-09-06T04:18:30.865Z,101497.03
2022-09-06T04:20:58.702Z,101499.84
2022-09-06T04:23:27.985Z,101498.09
2022-09-06T04:25:58.057Z,101488.72
2022-09-06T04:28:27.144Z,101490.41
2022-09-06T04:31:04.243Z,101492.13
2022-09-06T04:33:34.571Z,101496.78
2022-09-06T04:36:04.947Z,101490.31
2022-09-06T04:38:39.186Z,101494.22
2022-09-06T04:41:07.943Z,101478.75
2022-09-06T04:43:36.217Z,101491.91
2022-09-06T04:46:19.333Z,101494.81
2022-09-06T04:48:48.065Z,101494.50
2022-09-06T04:51:15.764Z,101486.00
2022-09-06T04:53:43.274Z,101487.44
2022-09-06T04:56:16.355Z,101491.06
2022-09-06T04:58:45.544Z,101494.16
2022-09-06T05:01:13.392Z,101486.06
2022-09-06T05:03:41.274Z,101489.13
2022-09-06T05:06:23.114Z,101486.59
2022-09-06T05:08:51.220Z,101492.09
2022-09-06T05:11:19.929Z,101498.84
2022-09-06T05:13:48.110Z,101491.47
2022-09-06T05:16:15.744Z,101500.16
2022-09-06T05:18:44.527Z,101498.13
2022-09-06T05:21:12.545Z,101494.84
2022-09-06T05:23:40.119Z,101498.22
2022-09-06T05:26:08.145Z,101507.63
2022-09-06T05:28:35.795Z,101516.19
2022-09-06T05:31:07.385Z,101508.28
2022-09-06T05:33:35.012Z,101507.59
2022-09-06T05:36:04.480Z,101514.00
2022-09-06T05:38:32.179Z,101506.34
2022-09-06T05:40:59.945Z,101514.50
2022-09-06T05:43:28.559Z,101506.44
2022-09-06T05:45:56.108Z,101511.75
2022-09-06T05:48:23.750Z,101503.41
2022-09-06T05:51:13.673Z,101510.44
2022-09-06T05:53:47.739Z,101504.50
2022-09-06T05:56:15.789Z,101512.47
2022-09-06T05:58:43.584Z,101515.53
2022-09-06T06:01:34.688Z,101512.13
2022-09-06T06:04:05.240Z,101521.03
2022-09-06T06:06:34.745Z,101513.56
2022-09-06T06:09:02.571Z,101515.66
2022-09-06T06:11:31.451Z,101526.41
2022-09-06T06:14:02.035Z,101531.22
2022-09-06T06:16:30.293Z,101526.88
2022-09-06T06:18:58.053Z,101492.69
2022-09-06T06:21:34.189Z,101523.44
2022-09-06T06:24:06.700Z,101518.78
2022-09-06T06:26:36.800Z,101528.06
2022-09-06T06:29:08.361Z,101537.91
2022-09-06T06:31:38.189Z,101532.69
2022-09-06T06:34:06.673Z,101535.88
2022-09-06T06:36:36.531Z,101530.41
2022-09-06T06:39:07.005Z,101538.78
2022-09-06T06:41:34.603Z,101531.06
2022-09-06T06:44:04.054Z,101535.22
2022-09-06T06:46:34.578Z,101527.03
2022-09-06T06:49:02.448Z,101537.22
2022-09-06T06:51:33.342Z,101529.28
2022-09-06T06:54:00.878Z,101529.97
2022-09-06T06:56:29.590Z,101535.81
2022-09-06T06:59:01.543Z,101533.09
2022-09-06T07:01:31.233Z,101536.06
2022-09-06T07:03:59.236Z,101534.56
2022-09-06T07:09:19.541Z,101541.09
2022-09-06T07:11:51.262Z,101531.59
2022-09-06T07:14:20.357Z,101535.06
2022-09-06T07:16:48.347Z,101530.44
2022-09-06T07:22:06.984Z,101527.72
2022-09-06T07:24:37.030Z,101522.84
2022-09-06T07:29:52.511Z,101521.94
2022-09-06T07:32:20.121Z,101518.34
2022-09-06T07:34:47.713Z,101516.19
2022-09-06T07:37:15.637Z,101508.78
2022-09-06T07:39:43.363Z,101514.06
2022-09-06T07:42:12.086Z,101514.59
2022-09-06T07:44:44.512Z,101507.16
2022-09-06T07:53:15.642Z,101505.88
2022-09-06T07:55:45.629Z,101507.28
2022-09-06T07:58:15.232Z,101509.97
2022-09-06T08:00:46.169Z,101501.53
2022-09-06T08:03:16.626Z,101508.91
2022-09-06T08:06:10.028Z,101503.03
2022-09-06T08:09:00.914Z,101500.34
2022-09-06T08:11:34.739Z,101496.66
2022-09-06T08:14:07.018Z,101495.94
2022-09-06T08:16:40.328Z,101491.75
2022-09-06T08:19:11.963Z,101498.88
2022-09-06T08:21:41.847Z,101491.88
2022-09-06T08:24:12.309Z,101481.06
2022-09-06T08:26:45.857Z,101482.56
2022-09-06T08:29:16.569Z,101486.03
2022-09-06T08:31:47.055Z,101479.13
2022-09-06T08:34:16.994Z,101475.13
2022-09-06T08:36:49.748Z,101477.53
2022-09-06T08:39:19.509Z,101480.91
2022-09-06T08:41:55.253Z,101471.94
2022-09-06T08:47:28.448Z,101459.66
2022-09-06T08:50:05.443Z,101459.13
2022-09-06T08:52:49.689Z,101467.81
2022-09-06T08:56:07.518Z,101448.78
2022-09-06T08:58:50.696Z,101443.31
2022-09-06T09:01:26.198Z,101423.56
2022-09-06T09:03:59.191Z,101445.38
2022-09-06T09:06:30.850Z,101432.78
2022-09-06T09:09:08.905Z,101438.50
2022-09-06T09:11:44.974Z,101440.16
2022-09-06T09:14:22.981Z,101435.47
2022-09-06T09:17:00.615Z,101436.31
2022-09-06T09:19:34.405Z,101434.47
2022-09-06T09:22:04.214Z,101432.69
2022-09-06T09:24:34.016Z,101430.63
2022-09-06T09:27:14.836Z,101430.34
2022-09-06T09:32:53.929Z,101429.91
2022-09-06T09:35:39.698Z,101441.13
2022-09-06T09:38:21.622Z,101433.53
2022-09-06T09:40:58.064Z,101434.13
2022-09-06T09:43:33.556Z,101425.13
2022-09-06T09:46:41.479Z,101429.72
2022-09-06T09:49:35.974Z,101428.31
2022-09-06T09:52:10.777Z,101423.81
2022-09-06T09:54:45.273Z,101415.06
2022-09-06T09:57:22.302Z,101424.56
2022-09-06T10:00:02.369Z,101410.03
2022-09-06T10:02:42.435Z,101410.06
2022-09-06T10:05:17.815Z,101409.66
2022-09-06T10:07:51.494Z,101410.53
2022-09-06T10:10:30.082Z,101408.03
2022-09-06T10:13:22.550Z,101413.63
2022-09-06T10:15:55.269Z,101415.03
2022-09-06T10:18:39.665Z,101413.38
2022-09-06T10:21:23.463Z,101409.06
2022-09-06T10:27:03.342Z,101407.25
2022-09-06T10:30:10.198Z,101398.56
2022-09-06T10:32:49.946Z,101400.06
2022-09-06T10:35:27.235Z,101413.09
2022-09-06T10:38:17.889Z,101407.41
2022-09-06T10:41:02.241Z,101409.28
2022-09-06T10:43:42.031Z,101400.03
2022-09-06T10:46:19.640Z,101405.75
2022-09-06T10:48:50.461Z,101408.75
2022-09-06T10:51:33.869Z,101390.59
2022-09-06T10:54:26.091Z,101402.34
2022-09-06T10:56:59.723Z,101399.91
2022-09-06T10:59:55.399Z,101404.50
2022-09-06T11:06:10.554Z,101407.06
2022-09-06T11:11:28.508Z,101406.25
2022-09-06T11:14:02.462Z,101400.75
2022-09-06T11:16:43.013Z,101405.16
2022-09-06T11:19:41.757Z,101396.16
2022-09-06T11:22:36.393Z,101405.28
2022-09-06T11:25:44.157Z,101401.72
2022-09-06T11:28:20.384Z,101387.28
2022-09-06T11:30:51.685Z,101392.97
2022-09-06T11:33:29.342Z,101386.72
2022-09-06T11:36:20.516Z,101386.66
2022-09-06T11:39:00.274Z,101385.47
2022-09-06T11:41:42.622Z,101390.06
2022-09-06T11:44:11.525Z,101399.84
2022-09-06T11:46:43.098Z,101399.41
2022-09-06T11:49:16.491Z,101399.72
2022-09-06T11:51:45.499Z,101393.19
2022-09-06T11:54:25.282Z,101386.09
2022-09-06T11:57:18.138Z,101386.94
2022-09-06T11:59:52.925Z,101384.47
2022-09-06T12:02:39.147Z,101391.56
2022-09-06T12:05:09.705Z,101391.06
2022-09-06T12:07:40.278Z,101395.47
2022-09-06T12:10:30.765Z,101402.56
2022-09-06T12:12:59.168Z,101406.09
2022-09-06T12:15:28.068Z,101402.00
2022-09-06T12:17:56.508Z,101394.97
2022-09-06T12:20:49.042Z,101396.59
2022-09-06T12:23:34.914Z,101391.69
2022-09-06T12:26:07.376Z,101401.22
2022-09-06T12:28:51.772Z,101396.06
2022-09-06T12:31:28.075Z,101382.47
2022-09-06T12:34:01.415Z,101400.88
2022-09-06T12:36:32.168Z,101407.41
2022-09-06T12:39:03.138Z,101403.56
2022-09-06T12:41:40.417Z,101400.53
2022-09-06T12:44:16.431Z,101410.03
2022-09-06T12:46:50.913Z,101408.94
2022-09-06T12:49:22.665Z,101404.56
2022-09-06T12:51:51.099Z,101408.84
2022-09-06T12:54:22.657Z,101398.22
2022-09-06T12:56:51.343Z,101397.38
2022-09-06T12:59:24.891Z,101403.94
2022-09-06T13:02:05.283Z,101399.09
2022-09-06T13:04:49.563Z,101406.69
2022-09-06T13:07:20.944Z,101405.53
2022-09-06T13:09:52.949Z,101403.28
2022-09-06T13:12:25.359Z,101400.78
2022-09-06T13:14:55.505Z,101388.78
2022-09-06T13:17:27.113Z,101404.75
2022-09-06T13:19:56.041Z,101400.09
2022-09-06T13:22:43.317Z,101390.50
2022-09-06T13:25:21.209Z,101395.59
2022-09-06T13:27:51.285Z,101395.03
2022-09-06T13:30:38.953Z,101400.41
2022-09-06T13:33:07.726Z,101403.25
2022-09-06T13:35:38.170Z,101397.13
2022-09-06T13:38:38.727Z,101403.78
2022-09-06T13:41:27.964Z,101393.44
2022-09-06T13:44:20.886Z,101400.25
2022-09-06T13:46:53.805Z,101392.84
2022-09-06T13:49:24.755Z,101400.31
2022-09-06T13:51:54.049Z,101398.31
2022-09-06T13:54:23.011Z,101397.13
2022-09-06T13:56:51.243Z,101406.78
2022-09-06T13:59:19.412Z,101404.03
2022-09-06T14:01:50.625Z,101398.50
2022-09-06T14:04:21.721Z,101405.56
2022-09-06T14:06:49.587Z,101409.31
2022-09-06T14:09:17.312Z,101407.13
2022-09-06T14:11:48.608Z,101410.06
2022-09-06T14:14:18.020Z,101409.50
2022-09-06T14:16:46.497Z,101413.59
2022-09-06T14:19:14.737Z,101415.72
2022-09-06T14:21:42.224Z,101420.00
2022-09-06T14:24:10.297Z,101415.19
2022-09-06T14:26:38.931Z,101421.41
2022-09-06T14:29:06.803Z,101422.47
2022-09-06T14:31:34.917Z,101422.16
2022-09-06T14:34:04.331Z,101419.13
2022-09-06T14:36:33.034Z,101423.66
2022-09-06T14:39:02.086Z,101423.91
2022-09-06T14:41:29.959Z,101425.69
2022-09-06T14:43:58.937Z,101424.34
2022-09-06T14:46:28.176Z,101424.84
2022-09-06T14:49:01.874Z,101430.72
2022-09-06T14:51:32.440Z,101420.59
2022-09-06T14:54:07.840Z,101428.31
2022-09-06T14:56:35.461Z,101430.38
2022-09-06T14:59:03.332Z,101437.09
2022-09-06T15:01:38.028Z,101437.50
2022-09-06T15:04:08.401Z,101437.84
2022-09-06T15:06:39.421Z,101436.16
2022-09-06T15:09:08.222Z,101435.50
2022-09-06T15:11:40.425Z,101435.16
2022-09-06T15:14:25.611Z,101445.09
2022-09-06T15:16:56.890Z,101441.13
2022-09-06T15:19:25.815Z,101443.16
2022-09-06T15:21:53.755Z,101437.09
2022-09-06T15:24:21.658Z,101432.34
2022-09-06T15:26:50.578Z,101441.06
2022-09-06T15:29:18.339Z,101444.25
2022-09-06T15:31:50.567Z,101448.72
2022-09-06T15:34:24.011Z,101441.59
2022-09-06T15:36:53.543Z,101442.81
2022-09-06T15:39:21.495Z,101438.94
2022-09-06T15:41:50.761Z,101443.75
2022-09-06T15:44:20.976Z,101455.34
2022-09-06T15:46:50.281Z,101460.06
2022-09-06T15:49:27.600Z,101461.03
2022-09-06T15:51:58.521Z,101463.59
2022-09-06T15:54:44.300Z,101465.84
2022-09-06T15:57:12.552Z,101479.19
2022-09-06T15:59:41.322Z,101471.00
2022-09-06T16:02:09.742Z,101481.44
2022-09-06T16:04:37.415Z,101481.34
2022-09-06T16:07:05.275Z,101488.47
2022-09-06T16:09:32.770Z,101493.28
2022-09-06T16:12:00.357Z,101490.81
2022-09-06T16:14:29.302Z,101493.50
2022-09-06T16:16:57.743Z,101495.41
2022-09-06T16:19:26.606Z,101496.78
2022-09-06T16:21:54.158Z,101501.72
2022-09-06T16:24:21.703Z,101511.00
2022-09-06T16:26:49.326Z,101507.25
2022-09-06T16:29:18.497Z,101499.84
2022-09-06T16:31:46.663Z,101509.13
2022-09-06T16:34:17.098Z,101510.16
2022-09-06T16:36:44.633Z,101520.13
2022-09-06T16:39:12.223Z,101514.72
2022-09-06T16:41:46.008Z,101518.94
2022-09-06T16:44:17.129Z,101509.94
2022-09-06T16:46:46.761Z,101523.16
2022-09-06T16:49:17.256Z,101519.28
2022-09-06T16:51:45.388Z,101526.41
2022-09-06T16:54:13.181Z,101519.63
2022-09-06T16:56:41.762Z,101523.84
2022-09-06T16:59:10.651Z,101528.28
2022-09-06T17:01:42.039Z,101538.69
2022-09-06T17:04:10.087Z,101526.97
2022-09-06T17:06:44.974Z,101521.91
2022-09-06T17:09:19.498Z,101531.75
2022-09-06T17:11:50.391Z,101532.03
2022-09-06T17:14:20.705Z,101536.91
2022-09-06T17:17:07.265Z,101540.31
2022-09-06T17:19:39.942Z,101542.84
2022-09-06T17:22:11.543Z,101543.28
2022-09-06T17:24:40.935Z,101552.06
2022-09-06T17:27:08.905Z,101542.56
2022-09-06T17:29:42.832Z,101544.09
2022-09-06T17:32:10.730Z,101549.09
2022-09-06T17:34:40.081Z,101548.72
2022-09-06T17:37:08.073Z,101544.75
2022-09-06T17:39:38.260Z,101553.88
2022-09-06T17:42:06.343Z,101553.28
2022-09-06T17:44:33.945Z,101549.97
2022-09-06T17:47:18.887Z,101558.31
2022-09-06T17:49:47.498Z,101554.31
2022-09-06T17:52:15.016Z,101553.75
2022-09-06T17:54:44.059Z,101556.44
2022-09-06T17:57:11.725Z,101557.22
2022-09-06T17:59:39.785Z,101561.81
2022-09-06T18:02:07.762Z,101552.75
2022-09-06T18:04:35.476Z,101554.03
2022-09-06T18:07:03.067Z,101554.84
2022-09-06T18:09:30.878Z,101553.22
2022-09-06T18:11:59.245Z,101556.50
2022-09-06T18:14:28.881Z,101553.00
2022-09-06T18:16:57.397Z,101557.53
2022-09-06T18:19:25.331Z,101555.53
2022-09-06T18:21:52.885Z,101555.78
2022-09-06T18:24:20.486Z,101551.44
2022-09-06T18:26:47.985Z,101555.53
2022-09-06T18:29:18.269Z,101553.69
2022-09-06T18:31:46.094Z,101550.38
2022-09-06T18:34:13.804Z,101548.75
2022-09-06T18:36:41.426Z,101552.03
2022-09-06T18:39:08.977Z,101557.41
2022-09-06T18:41:54.532Z,101559.50
2022-09-06T18:44:22.773Z,101566.75
2022-09-06T18:46:50.431Z,101568.63
2022-09-06T18:49:20.930Z,101564.50
2022-09-06T18:51:48.505Z,101567.41
2022-09-06T18:54:16.381Z,101558.81
2022-09-06T18:56:47.016Z,101569.81
2022-09-06T18:59:19.250Z,101561.91
2022-09-06T19:01:46.873Z,101574.25
2022-09-06T19:04:17.304Z,101577.25
2022-09-06T19:06:45.261Z,101575.47
2022-09-06T19:09:15.878Z,101569.91
2022-09-06T19:11:45.820Z,101571.59
2022-09-06T19:14:14.028Z,101578.66
2022-09-06T19:16:42.409Z,101585.75
2022-09-06T19:19:11.970Z,101577.16
2022-09-06T19:21:42.206Z,101577.59
2022-09-06T19:24:12.515Z,101580.09
2022-09-06T19:26:42.308Z,101584.69
2022-09-06T19:29:17.724Z,101580.97
2022-09-06T19:31:47.439Z,101593.38
2022-09-06T19:34:16.451Z,101599.19
2022-09-06T19:36:44.949Z,101595.88
2022-09-06T19:39:16.180Z,101601.72
2022-09-06T19:41:47.033Z,101604.63
2022-09-06T19:44:17.991Z,101600.50
2022-09-06T19:46:47.658Z,101600.50
2022-09-06T19:49:23.519Z,101601.53
2022-09-06T19:51:51.535Z,101594.28
2022-09-06T19:54:19.887Z,101603.38
2022-09-06T19:56:47.747Z,101603.38
2022-09-06T19:59:16.612Z,101605.88
2022-09-06T20:01:46.640Z,101603.78
2022-09-06T20:04:15.195Z,101604.63
2022-09-06T20:06:42.821Z,101613.06
2022-09-06T20:09:11.155Z,101611.41
2022-09-06T20:11:40.357Z,101604.41
2022-09-06T20:14:08.831Z,101606.91
2022-09-06T20:16:41.203Z,101612.28
2022-09-06T20:19:09.977Z,101613.31
2022-09-06T20:21:37.482Z,101608.38
2022-09-06T20:24:05.177Z,101613.75
2022-09-06T20:26:36.964Z,101607.78
2022-09-06T20:29:06.916Z,101620.16
2022-09-06T20:31:36.629Z,101617.47
2022-09-06T20:34:05.735Z,101610.00
2022-09-06T20:36:33.570Z,101613.75
2022-09-06T20:39:02.320Z,101612.94
2022-09-06T20:41:34.069Z,101610.47
2022-09-06T20:44:01.697Z,101608.59
2022-09-06T20:46:32.658Z,101610.88
2022-09-06T20:49:03.896Z,101609.66
2022-09-06T20:51:34.749Z,101615.50
2022-09-06T20:54:06.094Z,101611.56
2022-09-06T20:56:37.300Z,101608.28
2022-09-06T20:59:08.576Z,101616.72
2022-09-06T21:01:41.840Z,101618.59
2022-09-06T21:04:10.445Z,101611.16
2022-09-06T21:06:39.695Z,101607.03
2022-09-06T21:09:15.231Z,101612.19
2022-09-06T21:11:43.552Z,101607.25
2022-09-06T21:14:11.785Z,101615.50
2022-09-06T21:16:40.958Z,101613.84
2022-09-06T21:19:10.574Z,101618.66
2022-09-06T21:21:43.839Z,101617.22
2022-09-06T21:24:12.206Z,101617.63
2022-09-06T21:26:41.188Z,101618.28
2022-09-06T21:29:08.788Z,101621.38
2022-09-06T21:31:40.670Z,101622.47
2022-09-06T21:34:16.258Z,101621.03
2022-09-06T21:36:45.193Z,101628.25
2022-09-06T21:39:13.235Z,101630.94
2022-09-06T21:41:42.717Z,101633.63
2022-09-06T21:44:11.082Z,101630.97
2022-09-06T21:46:40.297Z,101632.63
2022-09-06T21:49:10.691Z,101633.06
2022-09-06T21:51:38.960Z,101637.00
2022-09-06T21:54:07.480Z,101630.19
2022-09-06T21:56:37.428Z,101638.88
2022-09-06T21:59:08.183Z,101634.94
2022-09-06T22:01:37.781Z,101631.88
2022-09-06T22:04:06.336Z,101641.75
2022-09-06T22:06:35.168Z,101643.00
2022-09-06T22:09:07.918Z,101645.06
2022-09-06T22:11:35.691Z,101643.44
2022-09-06T22:14:06.079Z,101644.66
2022-09-06T22:16:36.157Z,101648.59
2022-09-06T22:19:05.291Z,101653.94
2022-09-06T22:21:33.990Z,101647.16
2022-09-06T22:24:10.555Z,101650.84
2022-09-06T22:26:40.414Z,101659.09
2022-09-06T22:29:10.466Z,101657.91
2022-09-06T22:31:38.435Z,101654.19
2022-09-06T22:34:06.862Z,101659.75
2022-09-06T22:36:34.523Z,101663.28
2022-09-06T22:39:02.082Z,101656.06
2022-09-06T22:41:32.498Z,101662.88
2022-09-06T22:44:01.890Z,101661.84
2022-09-06T22:46:30.003Z,101659.59
2022-09-06T22:48:58.637Z,101670.06
2022-09-06T22:51:29.153Z,101665.94
2022-09-06T22:53:56.705Z,101669.47
2022-09-06T22:56:26.775Z,101673.13
2022-09-06T22:58:54.290Z,101662.41
2022-09-06T23:01:22.151Z,101667.75
2022-09-06T23:03:50.962Z,101674.53
2022-09-06T23:06:18.781Z,101676.56
2022-09-06T23:08:46.447Z,101674.28
2022-09-06T23:11:16.571Z,101681.22
2022-09-06T23:13:44.846Z,101682.06
2022-09-06T23:16:18.073Z,101683.66
2022-09-06T23:18:46.448Z,101680.78
2022-09-06T23:21:17.595Z,101681.34
2022-09-06T23:23:46.181Z,101680.72
2022-09-06T23:26:20.982Z,101679.09
2022-09-06T23:28:57.642Z,101677.84
2022-09-06T23:31:28.220Z,101683.56
2022-09-06T23:33:57.607Z,101676.34
2022-09-06T23:36:25.945Z,101678.78
2022-09-06T23:38:53.701Z,101680.22
2022-09-06T23:41:21.182Z,101685.97
2022-09-06T23:43:48.720Z,101678.31
2022-09-06T23:46:16.853Z,101691.28
2022-09-06T23:48:44.531Z,101687.97
2022-09-06T23:51:13.285Z,101691.84
2022-09-06T23:53:41.177Z,101693.25
2022-09-06T23:56:09.227Z,101697.16
2022-09-06T23:58:37.325Z,101693.22
